createdAt,value
2023-04-29T00:00:50.387Z,3.25
2023-04-29T00:03:23.080Z,3.20
2023-04-29T00:05:56.340Z,3.92
2023-04-29T00:11:01.508Z,4.50
2023-04-29T00:13:34.143Z,4.47
2023-04-29T00:16:07.466Z,4.00
2023-04-29T00:18:40.059Z,4.03
2023-04-29T00:21:12.716Z,3.13
2023-04-29T00:23:45.157Z,3.63
2023-04-29T00:26:17.868Z,3.03
2023-04-29T00:28:52.784Z,3.22
2023-04-29T00:31:26.343Z,3.22
2023-04-29T00:33:59.043Z,3.70
2023-04-29T00:36:32.694Z,3.10
2023-04-29T00:39:05.386Z,2.92
2023-04-29T00:41:38.832Z,3.35
2023-04-29T00:44:11.853Z,3.03
2023-04-29T00:46:44.743Z,3.15
2023-04-29T00:49:17.366Z,3.78
2023-04-29T00:51:50.714Z,3.40
2023-04-29T00:54:23.283Z,2.92
2023-04-29T00:56:57.366Z,3.08
2023-04-29T00:59:32.639Z,2.80
2023-04-29T01:02:06.950Z,2.70
2023-04-29T01:04:39.637Z,2.85
2023-04-29T01:07:35.158Z,3.03
2023-04-29T01:10:27.420Z,2.70
2023-04-29T01:13:08.715Z,3.13
2023-04-29T01:15:59.407Z,3.50
2023-04-29T01:18:41.621Z,3.10
2023-04-29T01:21:14.640Z,3.07
2023-04-29T01:23:47.957Z,2.90
2023-04-29T01:26:20.548Z,3.30
2023-04-29T01:29:23.416Z,2.83
2023-04-29T01:32:05.334Z,3.60
2023-04-29T01:34:53.862Z,2.92
2023-04-29T01:37:38.429Z,3.63
2023-04-29T01:40:23.106Z,3.67
2023-04-29T01:43:13.072Z,4.15
2023-04-29T01:45:51.688Z,4.57
2023-04-29T01:48:25.356Z,4.43
2023-04-29T01:50:58.572Z,4.30
2023-04-29T01:53:31.206Z,4.00
2023-04-29T01:56:03.701Z,4.18
2023-04-29T01:58:49.077Z,3.75
2023-04-29T02:01:37.932Z,3.45
2023-04-29T02:04:10.616Z,3.65
2023-04-29T02:06:43.393Z,3.50
2023-04-29T02:09:16.052Z,3.58
2023-04-29T02:11:55.091Z,3.92
2023-04-29T02:14:27.644Z,2.97
2023-04-29T02:17:00.858Z,3.50
2023-04-29T02:19:33.724Z,3.40
2023-04-29T02:24:39.436Z,3.78
2023-04-29T02:27:13.091Z,3.58
2023-04-29T02:29:45.573Z,3.60
2023-04-29T02:32:20.336Z,4.28
2023-04-29T02:34:53.120Z,3.17
2023-04-29T02:37:27.609Z,3.30
2023-04-29T02:40:00.201Z,3.38
2023-04-29T02:42:32.724Z,3.58
2023-04-29T02:45:07.535Z,4.13
2023-04-29T02:47:40.082Z,3.28
2023-04-29T02:50:12.731Z,3.95
2023-04-29T02:52:45.319Z,5.00
2023-04-29T02:55:19.105Z,4.28
2023-04-29T02:57:51.678Z,3.55
2023-04-29T03:00:24.441Z,3.78
2023-04-29T03:02:57.933Z,3.60
2023-04-29T03:05:30.698Z,4.45
2023-04-29T03:10:41.507Z,3.63
2023-04-29T03:13:14.424Z,3.63
2023-04-29T03:15:47.305Z,4.05
2023-04-29T03:18:20.308Z,4.40
2023-04-29T03:20:54.108Z,3.75
2023-04-29T03:23:27.098Z,3.88
2023-04-29T03:26:01.758Z,3.92
2023-04-29T03:28:34.396Z,3.97
2023-04-29T03:31:07.015Z,4.03
2023-04-29T03:33:39.581Z,3.60
2023-04-29T03:36:12.278Z,3.47
2023-04-29T03:38:55.508Z,4.15
2023-04-29T03:41:28.213Z,3.97
2023-04-29T03:44:01.232Z,4.60
2023-04-29T03:46:35.143Z,3.75
2023-04-29T03:49:08.071Z,3.60
2023-04-29T03:51:40.807Z,3.95
2023-04-29T03:54:21.916Z,4.28
2023-04-29T03:56:56.399Z,4.20
2023-04-29T03:59:29.682Z,3.95
2023-04-29T04:02:03.321Z,3.63
2023-04-29T04:04:36.281Z,4.22
2023-04-29T04:07:09.129Z,3.78
2023-04-29T04:10:01.636Z,3.60
2023-04-29T04:12:34.084Z,4.10
2023-04-29T04:15:06.999Z,4.20
2023-04-29T04:17:39.807Z,3.75
2023-04-29T04:22:46.098Z,3.58
2023-04-29T04:25:23.827Z,3.65
2023-04-29T04:27:57.690Z,4.10
2023-04-29T04:30:50.421Z,3.92
2023-04-29T04:33:23.157Z,3.70
2023-04-29T04:35:55.731Z,4.15
2023-04-29T04:38:28.463Z,3.80
2023-04-29T04:41:01.594Z,3.88
2023-04-29T04:43:42.662Z,4.55
2023-04-29T04:46:24.026Z,3.85
2023-04-29T04:49:11.786Z,4.22
2023-04-29T04:51:49.969Z,3.80
2023-04-29T04:54:22.387Z,4.03
2023-04-29T04:56:59.317Z,3.95
2023-04-29T04:59:32.121Z,3.58
2023-04-29T05:02:04.686Z,2.92
2023-04-29T05:04:37.528Z,3.80
2023-04-29T05:07:10.948Z,4.10
2023-04-29T05:10:04.177Z,3.35
2023-04-29T05:12:38.540Z,3.17
2023-04-29T05:15:11.636Z,3.15
2023-04-29T05:17:44.637Z,3.38
2023-04-29T05:20:17.176Z,3.22
2023-04-29T05:22:49.851Z,3.08
2023-04-29T05:27:55.245Z,3.13
2023-04-29T05:30:28.557Z,3.38
2023-04-29T05:35:33.923Z,2.73
2023-04-29T05:38:07.024Z,2.67
2023-04-29T05:40:45.904Z,2.90
2023-04-29T05:43:38.369Z,3.22
2023-04-29T05:46:11.044Z,3.17
2023-04-29T05:48:44.400Z,2.75
2023-04-29T05:51:18.092Z,4.07
2023-04-29T05:58:57.191Z,2.50
2023-04-29T06:01:29.774Z,2.40
2023-04-29T06:04:03.711Z,2.35
2023-04-29T06:06:44.573Z,3.40
2023-04-29T06:09:28.192Z,3.13
2023-04-29T06:12:05.437Z,3.05
2023-04-29T06:14:38.143Z,2.95
2023-04-29T06:17:11.360Z,2.42
2023-04-29T06:19:44.043Z,2.10
2023-04-29T06:22:16.677Z,2.45
2023-04-29T06:24:54.432Z,3.50
2023-04-29T06:27:47.292Z,3.00
2023-04-29T06:30:21.099Z,2.63
2023-04-29T06:32:53.852Z,3.60
2023-04-29T06:35:26.602Z,3.42
2023-04-29T06:38:19.401Z,3.90
2023-04-29T06:41:12.182Z,2.67
2023-04-29T06:44:02.944Z,2.70
2023-04-29T06:46:53.935Z,2.67
2023-04-29T06:49:37.458Z,2.78
2023-04-29T06:52:11.736Z,3.00
2023-04-29T06:54:44.345Z,2.53
2023-04-29T06:57:17.455Z,2.90
2023-04-29T06:59:52.023Z,2.45
2023-04-29T07:04:57.441Z,2.15
2023-04-29T07:07:30.515Z,2.22
2023-04-29T07:10:03.351Z,2.50
2023-04-29T07:12:37.548Z,3.35
2023-04-29T07:15:10.648Z,2.70
2023-04-29T07:17:43.223Z,2.55
2023-04-29T07:20:16.009Z,2.05
2023-04-29T07:25:21.244Z,2.30
2023-04-29T07:27:53.884Z,2.63
2023-04-29T07:30:26.412Z,2.85
2023-04-29T07:32:59.080Z,2.50
2023-04-29T07:35:31.997Z,2.55
2023-04-29T07:38:04.526Z,2.85
2023-04-29T07:40:38.991Z,2.90
2023-04-29T07:43:11.764Z,3.00
2023-04-29T07:45:44.842Z,2.72
2023-04-29T07:48:17.385Z,2.08
2023-04-29T07:50:49.997Z,2.30
2023-04-29T07:53:23.105Z,2.15
2023-04-29T07:55:57.462Z,2.20
2023-04-29T07:58:31.532Z,2.20
2023-04-29T08:01:12.353Z,2.10
2023-04-29T08:03:46.482Z,2.00
2023-04-29T08:06:22.514Z,2.03
2023-04-29T08:08:56.710Z,2.30
2023-04-29T08:11:29.251Z,2.25
2023-04-29T08:14:01.752Z,2.20
2023-04-29T08:19:07.356Z,2.10
2023-04-29T08:21:39.968Z,2.15
2023-04-29T08:24:12.685Z,2.45
2023-04-29T08:26:45.265Z,1.70
2023-04-29T08:29:17.991Z,2.13
2023-04-29T08:34:26.764Z,1.58
2023-04-29T08:36:59.218Z,2.00
2023-04-29T08:39:32.090Z,1.80
2023-04-29T08:42:12.202Z,1.90
2023-04-29T08:44:45.356Z,2.35
2023-04-29T08:47:18.185Z,5.78
2023-04-29T08:49:51.430Z,1.88
2023-04-29T08:52:25.225Z,2.55
2023-04-29T08:54:57.973Z,2.05
2023-04-29T08:57:40.003Z,2.28
2023-04-29T09:00:13.908Z,2.03
2023-04-29T09:02:54.250Z,2.03
2023-04-29T09:05:28.142Z,1.73
2023-04-29T09:08:03.582Z,2.17
2023-04-29T09:10:42.349Z,2.05
2023-04-29T09:13:29.521Z,2.50
2023-04-29T09:16:02.415Z,2.33
2023-04-29T09:18:51.983Z,1.90
2023-04-29T09:21:33.469Z,1.95
2023-04-29T09:24:06.094Z,2.20
2023-04-29T09:29:18.682Z,1.80
2023-04-29T09:31:53.882Z,2.03
2023-04-29T09:34:36.314Z,2.28
2023-04-29T09:37:26.902Z,2.20
2023-04-29T09:40:00.355Z,1.70
2023-04-29T09:42:43.887Z,1.50
2023-04-29T09:45:35.985Z,1.75
2023-04-29T09:48:10.283Z,1.90
2023-04-29T09:50:45.241Z,2.50
2023-04-29T09:53:30.584Z,1.88
2023-04-29T09:56:03.979Z,1.90
2023-04-29T09:59:01.267Z,2.45
2023-04-29T10:01:36.174Z,1.38
2023-04-29T10:04:11.693Z,1.73
2023-04-29T10:06:52.123Z,1.95
2023-04-29T10:09:24.929Z,2.35
2023-04-29T10:14:33.586Z,1.83
2023-04-29T10:17:16.794Z,1.67
2023-04-29T10:20:08.331Z,1.85
2023-04-29T10:22:48.175Z,1.85
2023-04-29T10:25:22.424Z,2.10
2023-04-29T10:27:56.244Z,2.10
2023-04-29T10:30:29.290Z,2.50
2023-04-29T10:33:03.709Z,1.90
2023-04-29T10:35:38.013Z,2.05
2023-04-29T10:38:21.477Z,2.00
2023-04-29T10:40:57.275Z,2.53
2023-04-29T10:43:31.974Z,1.80
2023-04-29T10:46:24.133Z,1.73
2023-04-29T10:49:03.832Z,2.05
2023-04-29T10:51:42.195Z,1.65
2023-04-29T10:54:16.916Z,2.22
2023-04-29T10:56:51.752Z,2.03
2023-04-29T10:59:44.213Z,1.75
2023-04-29T11:02:16.708Z,2.28
2023-04-29T11:05:11.428Z,1.80
2023-04-29T11:07:46.356Z,1.92
2023-04-29T11:10:19.061Z,2.10
2023-04-29T11:13:27.731Z,1.83
2023-04-29T11:16:08.223Z,2.30
2023-04-29T11:19:05.149Z,1.95
2023-04-29T11:21:38.395Z,2.17
2023-04-29T11:24:11.168Z,2.22
2023-04-29T11:26:44.737Z,1.73
2023-04-29T11:29:20.140Z,1.73
2023-04-29T11:32:01.918Z,1.80
2023-04-29T11:34:34.732Z,1.52
2023-04-29T11:37:07.395Z,2.53
2023-04-29T11:39:40.014Z,2.00
2023-04-29T11:42:12.536Z,1.85
2023-04-29T11:44:46.037Z,2.20
2023-04-29T11:47:18.716Z,1.75
2023-04-29T11:49:51.278Z,1.70
2023-04-29T11:52:23.973Z,1.83
2023-04-29T11:54:59.611Z,1.83
2023-04-29T11:57:32.426Z,2.22
2023-04-29T12:00:06.738Z,2.17
2023-04-29T12:02:46.685Z,2.10
2023-04-29T12:05:20.046Z,2.20
2023-04-29T12:10:25.208Z,1.83
2023-04-29T12:12:57.810Z,2.30
2023-04-29T12:15:31.755Z,2.40
2023-04-29T12:18:04.566Z,2.08
2023-04-29T12:20:39.465Z,1.80
2023-04-29T12:23:16.481Z,2.13
2023-04-29T12:26:00.697Z,2.00
2023-04-29T12:28:34.934Z,1.90
2023-04-29T12:31:10.152Z,1.98
2023-04-29T12:33:46.056Z,2.00
2023-04-29T12:36:19.448Z,1.75
2023-04-29T12:38:54.948Z,1.98
2023-04-29T12:41:42.970Z,1.73
2023-04-29T12:44:16.557Z,1.85
2023-04-29T12:46:49.113Z,1.80
2023-04-29T12:49:24.844Z,1.70
2023-04-29T12:51:57.389Z,1.60
2023-04-29T12:54:30.723Z,2.22
2023-04-29T12:57:04.422Z,1.75
2023-04-29T12:59:37.404Z,1.45
2023-04-29T13:02:10.336Z,1.50
2023-04-29T13:07:16.633Z,1.80
2023-04-29T13:09:49.523Z,2.20
2023-04-29T13:12:22.337Z,1.77
2023-04-29T13:14:57.810Z,2.03
2023-04-29T13:17:30.671Z,1.42
2023-04-29T13:20:05.056Z,1.63
2023-04-29T13:22:37.758Z,1.73
2023-04-29T13:25:10.898Z,1.42
2023-04-29T13:27:44.322Z,1.60
2023-04-29T13:30:16.973Z,1.88
2023-04-29T13:32:55.152Z,1.77
2023-04-29T13:35:31.232Z,1.75
2023-04-29T13:38:03.892Z,2.05
2023-04-29T13:43:26.501Z,1.60
2023-04-29T13:46:07.442Z,2.05
2023-04-29T13:51:53.733Z,1.73
2023-04-29T13:57:30.177Z,1.83
2023-04-29T13:59:44.866Z,2.13
2023-04-29T14:02:25.459Z,2.10
2023-04-29T14:04:59.041Z,2.05
2023-04-29T14:07:32.052Z,2.17
2023-04-29T14:10:04.906Z,2.05
2023-04-29T14:15:10.410Z,1.60
2023-04-29T14:17:42.997Z,1.80
2023-04-29T14:20:15.534Z,1.80
2023-04-29T14:22:48.160Z,1.80
2023-04-29T14:25:20.670Z,1.90
2023-04-29T14:27:53.212Z,2.05
2023-04-29T14:30:25.776Z,1.60
2023-04-29T14:32:58.599Z,1.40
2023-04-29T14:38:04.677Z,1.50
2023-04-29T14:40:39.355Z,1.20
2023-04-29T14:43:11.908Z,1.38
2023-04-29T14:45:45.471Z,1.80
2023-04-29T14:48:17.950Z,1.80
2023-04-29T14:50:50.490Z,1.60
2023-04-29T14:53:23.031Z,1.52
2023-04-29T14:55:55.659Z,1.85
2023-04-29T14:58:28.180Z,2.00
2023-04-29T15:01:00.734Z,1.58
2023-04-29T15:03:33.373Z,1.85
2023-04-29T15:06:06.157Z,1.77
2023-04-29T15:08:38.784Z,1.75
2023-04-29T15:11:11.398Z,1.73
2023-04-29T15:13:43.981Z,1.70
2023-04-29T15:16:16.436Z,1.98
2023-04-29T15:18:49.029Z,2.05
2023-04-29T15:21:22.401Z,1.70
2023-04-29T15:23:54.973Z,1.90
2023-04-29T15:26:27.586Z,1.73
2023-04-29T15:29:00.157Z,1.50
2023-04-29T15:31:32.991Z,1.60
2023-04-29T15:34:05.789Z,1.48
2023-04-29T15:36:38.223Z,1.73
2023-04-29T15:39:11.361Z,1.67
2023-04-29T15:41:44.055Z,2.40
2023-04-29T15:44:16.628Z,2.25
2023-04-29T15:46:49.172Z,2.10
2023-04-29T15:49:23.366Z,2.22
2023-04-29T15:51:56.983Z,1.70
2023-04-29T15:54:29.580Z,1.98
2023-04-29T15:57:04.071Z,1.70
2023-04-29T15:59:36.653Z,2.15
2023-04-29T16:02:11.132Z,3.30
2023-04-29T16:04:43.868Z,2.45
2023-04-29T16:07:17.413Z,2.70
2023-04-29T16:09:49.981Z,1.80
2023-04-29T16:12:23.806Z,2.40
2023-04-29T16:14:56.370Z,2.97
2023-04-29T16:17:29.017Z,2.30
2023-04-29T16:20:02.276Z,2.53
2023-04-29T16:22:34.804Z,2.38
2023-04-29T16:25:07.764Z,2.53
2023-04-29T16:30:12.887Z,2.53
2023-04-29T16:32:45.496Z,2.65
2023-04-29T16:35:18.162Z,2.60
2023-04-29T16:37:50.699Z,2.60
2023-04-29T16:40:24.670Z,3.17
2023-04-29T16:42:58.025Z,2.70
2023-04-29T16:45:30.711Z,3.00
2023-04-29T16:48:03.409Z,1.85
2023-04-29T16:50:37.811Z,2.47
2023-04-29T16:53:10.340Z,2.40
2023-04-29T16:55:42.906Z,2.15
2023-04-29T16:58:15.407Z,1.88
2023-04-29T17:00:48.259Z,2.08
2023-04-29T17:03:20.943Z,2.53
2023-04-29T17:05:53.616Z,2.40
2023-04-29T17:08:26.389Z,1.95
2023-04-29T17:10:59.446Z,2.33
2023-04-29T17:16:04.752Z,2.30
2023-04-29T17:18:37.579Z,2.60
2023-04-29T17:21:13.120Z,2.35
2023-04-29T17:23:56.700Z,2.15
2023-04-29T17:27:04.344Z,2.30
2023-04-29T17:29:37.195Z,2.83
2023-04-29T17:32:15.323Z,2.47
2023-04-29T17:34:52.399Z,2.55
2023-04-29T17:37:26.082Z,3.20
2023-04-29T17:39:59.015Z,2.20
2023-04-29T17:42:32.269Z,1.80
2023-04-29T17:45:06.005Z,2.13
2023-04-29T17:47:38.573Z,2.55
2023-04-29T17:50:12.235Z,2.50
2023-04-29T17:52:44.929Z,2.28
2023-04-29T17:55:17.783Z,1.85
2023-04-29T17:57:53.323Z,2.10
2023-04-29T18:00:26.052Z,2.20
2023-04-29T18:02:58.706Z,2.40
2023-04-29T18:05:31.419Z,3.88
2023-04-29T18:08:04.318Z,2.30
2023-04-29T18:13:09.261Z,2.17
2023-04-29T18:15:41.859Z,1.98
2023-04-29T18:18:14.563Z,2.40
2023-04-29T18:20:47.274Z,2.15
2023-04-29T18:23:19.766Z,2.30
2023-04-29T18:25:52.717Z,2.05
2023-04-29T18:30:58.486Z,2.00
2023-04-29T18:33:31.757Z,2.50
2023-04-29T18:36:04.573Z,2.65
2023-04-29T18:38:37.499Z,2.33
2023-04-29T18:41:12.223Z,2.47
2023-04-29T18:43:44.753Z,2.35
2023-04-29T18:46:17.452Z,2.30
2023-04-29T18:48:50.004Z,2.67
2023-04-29T18:51:23.191Z,2.30
2023-04-29T18:53:55.861Z,2.50
2023-04-29T18:56:28.468Z,2.33
2023-04-29T18:59:01.061Z,3.20
2023-04-29T19:01:33.600Z,2.90
2023-04-29T19:04:08.012Z,4.20
2023-04-29T19:06:42.823Z,4.35
2023-04-29T19:09:15.642Z,4.45
2023-04-29T19:11:48.250Z,3.22
2023-04-29T19:14:20.810Z,3.22
2023-04-29T19:16:55.025Z,2.97
2023-04-29T19:19:27.653Z,2.47
2023-04-29T19:22:00.763Z,2.97
2023-04-29T19:24:35.489Z,3.25
2023-04-29T19:27:08.426Z,2.70
2023-04-29T19:32:13.328Z,2.70
2023-04-29T19:34:46.027Z,3.25
2023-04-29T19:37:18.766Z,3.60
2023-04-29T19:39:51.628Z,2.83
2023-04-29T19:44:56.947Z,2.20
2023-04-29T19:47:29.474Z,2.70
2023-04-29T19:50:02.368Z,2.72
2023-04-29T19:52:34.904Z,2.90
2023-04-29T19:55:09.136Z,2.85
2023-04-29T19:57:42.370Z,3.50
2023-04-29T20:00:15.071Z,3.88
2023-04-29T20:02:50.990Z,3.47
2023-04-29T20:05:23.697Z,3.42
2023-04-29T20:07:56.410Z,4.90
2023-04-29T20:10:30.119Z,5.10
2023-04-29T20:13:03.228Z,5.13
2023-04-29T20:15:35.824Z,4.82
2023-04-29T20:18:08.392Z,4.55
2023-04-29T20:20:41.029Z,3.90
2023-04-29T20:23:13.828Z,4.78
2023-04-29T20:25:46.852Z,3.38
2023-04-29T20:30:51.660Z,3.20
2023-04-29T20:33:24.188Z,4.15
2023-04-29T20:35:57.923Z,4.28
2023-04-29T20:38:35.385Z,6.07
2023-04-29T20:41:08.191Z,5.97
2023-04-29T20:43:40.779Z,6.78
2023-04-29T20:46:13.983Z,6.72
2023-04-29T20:48:46.476Z,5.40
2023-04-29T20:51:19.085Z,5.97
2023-04-29T20:53:52.278Z,4.63
2023-04-29T20:56:26.188Z,3.80
2023-04-29T20:58:59.802Z,3.13
2023-04-29T21:01:35.594Z,3.40
2023-04-29T21:04:10.524Z,3.53
2023-04-29T21:06:43.250Z,3.63
2023-04-29T21:09:17.840Z,5.30
2023-04-29T21:11:50.418Z,2.90
2023-04-29T21:14:23.034Z,3.25
2023-04-29T21:16:55.985Z,3.47
2023-04-29T21:22:01.611Z,2.05
2023-04-29T21:24:34.165Z,2.45
2023-04-29T21:27:06.618Z,1.65
2023-04-29T21:29:41.131Z,2.13
2023-04-29T21:32:14.845Z,2.40
2023-04-29T21:34:47.946Z,2.88
2023-04-29T21:39:53.091Z,1.67
2023-04-29T21:45:01.396Z,3.20
2023-04-29T21:47:34.089Z,2.42
2023-04-29T21:50:08.339Z,2.13
2023-04-29T21:52:41.098Z,3.72
2023-04-29T21:55:13.767Z,4.40
2023-04-29T21:57:46.409Z,2.17
2023-04-29T22:00:31.009Z,2.20
2023-04-29T22:03:06.427Z,2.80
2023-04-29T22:05:39.134Z,2.17
2023-04-29T22:08:11.815Z,3.42
2023-04-29T22:10:44.425Z,2.22
2023-04-29T22:13:16.977Z,2.95
2023-04-29T22:15:49.621Z,2.85
2023-04-29T22:18:22.108Z,2.45
2023-04-29T22:20:54.682Z,3.42
2023-04-29T22:23:27.219Z,1.90
2023-04-29T22:25:59.798Z,2.45
2023-04-29T22:28:32.540Z,2.92
2023-04-29T22:31:05.810Z,3.00
2023-04-29T22:33:38.253Z,5.50
2023-04-29T22:36:10.861Z,3.67
2023-04-29T22:38:43.398Z,3.25
2023-04-29T22:41:16.731Z,2.72
2023-04-29T22:43:49.230Z,2.45
2023-04-29T22:46:21.719Z,3.05
2023-04-29T22:48:54.447Z,4.63
2023-04-29T22:51:26.988Z,4.55
2023-04-29T22:53:59.653Z,2.70
2023-04-29T22:56:32.745Z,2.20
2023-04-29T22:59:05.336Z,2.33
2023-04-29T23:01:38.321Z,6.22
2023-04-29T23:06:43.432Z,2.53
2023-04-29T23:09:16.414Z,2.10
2023-04-29T23:11:48.893Z,2.30
2023-04-29T23:14:21.978Z,3.10
2023-04-29T23:19:27.082Z,2.38
2023-04-29T23:22:00.122Z,2.33
2023-04-29T23:27:04.981Z,2.80
2023-04-29T23:29:37.555Z,2.38
2023-04-29T23:32:10.172Z,3.63
2023-04-29T23:34:42.606Z,3.97
2023-04-29T23:37:15.302Z,2.97
2023-04-29T23:39:47.876Z,2.72
2023-04-29T23:42:20.460Z,2.50
2023-04-29T23:44:52.903Z,2.65
2023-04-29T23:47:25.580Z,3.17
2023-04-29T23:49:58.078Z,2.25
2023-04-29T23:52:30.786Z,2.75
2023-04-29T23:55:04.012Z,3.00
2023-04-29T23:57:36.620Z,2.42
